Time;durP1;ratioP1;P1;durP2;ratioP2;P2;SDS_P1;SDS_P2;PMS_P1;PMS_P2;Temp;Humidity;BMP_temperature;BMP_pressure;BME280_temperature;BME280_humidity;BME280_pressure;Samples;Min_cycle;Max_cycle;Signal;HPM_P1;HPM_P2
2023/11/27 00:02:23;;;;;;;41.97;14.85;;;3.80;99.90;;;;;;4979558;28;20480;-93
2023/11/27 00:04:49;;;;;;;36.20;15.60;;;3.80;99.90;;;;;;4979701;28;20029;-93
2023/11/27 00:07:15;;;;;;;41.33;16.13;;;3.80;99.90;;;;;;4979426;28;20038;-94
2023/11/27 00:09:40;;;;;;;35.22;14.82;;;3.80;99.90;;;;;;4979024;28;20038;-94
2023/11/27 00:12:07;;;;;;;42.78;15.55;;;3.80;99.90;;;;;;4980119;28;20019;-93
2023/11/27 00:14:33;;;;;;;46.38;16.73;;;3.80;99.90;;;;;;4974828;28;20031;-94
2023/11/27 00:16:59;;;;;;;41.58;17.67;;;3.80;99.90;;;;;;4980821;28;20030;-93
2023/11/27 00:19:24;;;;;;;37.22;15.30;;;3.80;99.90;;;;;;4983234;28;20026;-93
2023/11/27 00:21:50;;;;;;;49.95;17.90;;;3.80;99.90;;;;;;4980604;28;20083;-94
2023/11/27 00:24:16;;;;;;;50.72;19.63;;;3.80;99.90;;;;;;4979313;28;20058;-94
2023/11/27 00:26:41;;;;;;;50.25;18.63;;;3.80;99.90;;;;;;4979335;28;20046;-93
2023/11/27 00:29:07;;;;;;;47.17;18.33;;;3.80;99.90;;;;;;4979981;28;20034;-92
2023/11/27 00:31:34;;;;;;;46.17;18.90;;;3.80;99.90;;;;;;4978962;28;20036;-91
2023/11/27 00:34:00;;;;;;;56.83;20.00;;;3.80;99.90;;;;;;4981886;28;20113;-91
2023/11/27 00:36:26;;;;;;;54.70;19.88;;;3.80;99.90;;;;;;4995445;28;20555;-94
2023/11/27 00:38:52;;;;;;;50.92;17.17;;;3.90;99.90;;;;;;4977435;28;20030;-92
2023/11/27 00:41:19;;;;;;;51.60;17.80;;;3.90;99.90;;;;;;4979694;28;20126;-93
2023/11/27 00:43:45;;;;;;;54.03;20.92;;;3.90;99.90;;;;;;4991485;28;20042;-92
2023/11/27 00:46:11;;;;;;;53.88;17.52;;;4.00;99.90;;;;;;5000904;28;20030;-91
2023/11/27 00:48:37;;;;;;;46.47;17.98;;;4.00;99.90;;;;;;4994684;28;20054;-92
2023/11/27 00:51:07;;;;;;;54.78;20.13;;;4.00;99.90;;;;;;4985650;28;20383;-93
2023/11/27 00:53:33;;;;;;;50.63;18.50;;;4.00;99.90;;;;;;4983904;28;20455;-93
2023/11/27 00:55:59;;;;;;;43.95;17.77;;;4.00;99.90;;;;;;4979322;28;20336;-93
2023/11/27 00:58:25;;;;;;;40.72;17.05;;;4.00;99.90;;;;;;4979369;28;20077;-93
2023/11/27 01:00:54;;;;;;;45.88;17.48;;;4.00;99.90;;;;;;4978892;28;20030;-92
2023/11/27 01:03:19;;;;;;;45.20;17.75;;;4.00;99.90;;;;;;4980185;28;20022;-92
2023/11/27 01:05:45;;;;;;;57.55;18.90;;;4.00;99.90;;;;;;4983788;28;20030;-92
2023/11/27 01:08:13;;;;;;;48.00;17.77;;;4.00;99.90;;;;;;4981874;28;20084;-92
2023/11/27 01:10:39;;;;;;;59.17;20.05;;;4.00;99.90;;;;;;4982587;28;20026;-93
2023/11/27 01:13:05;;;;;;;50.65;18.33;;;4.00;99.90;;;;;;4981539;28;20491;-92
2023/11/27 01:15:30;;;;;;;54.90;19.33;;;4.00;99.90;;;;;;4982176;28;20033;-91
2023/11/27 01:17:56;;;;;;;50.28;20.00;;;4.00;99.90;;;;;;4981863;28;20030;-92
2023/11/27 01:20:22;;;;;;;50.28;18.25;;;4.00;99.90;;;;;;4989033;28;20487;-92
2023/11/27 01:22:51;;;;;;;57.90;19.85;;;4.00;99.90;;;;;;4987377;28;20030;-92
2023/11/27 01:25:17;;;;;;;52.60;18.98;;;4.00;99.90;;;;;;4986083;28;20049;-91
2023/11/27 01:27:44;;;;;;;51.13;19.25;;;4.00;99.90;;;;;;4984738;28;20030;-91
2023/11/27 01:30:10;;;;;;;49.28;18.60;;;4.00;99.90;;;;;;4980603;28;20122;-91
2023/11/27 01:32:36;;;;;;;51.25;18.65;;;4.00;99.90;;;;;;4980141;28;20133;-90
2023/11/27 01:35:01;;;;;;;61.55;19.38;;;4.00;99.90;;;;;;4979752;28;20396;-92
2023/11/27 01:37:27;;;;;;;65.93;20.85;;;4.00;99.90;;;;;;4979028;28;20044;-91
2023/11/27 01:39:53;;;;;;;61.08;20.50;;;4.00;99.90;;;;;;4979148;28;20026;-90
2023/11/27 01:42:19;;;;;;;68.45;21.30;;;4.00;99.90;;;;;;4978508;28;20034;-91
2023/11/27 01:44:44;;;;;;;66.90;21.17;;;4.00;99.90;;;;;;4978655;28;20022;-91
2023/11/27 01:47:10;;;;;;;50.53;19.67;;;3.90;99.90;;;;;;4978238;28;20041;-91
2023/11/27 01:49:38;;;;;;;58.35;20.33;;;3.90;99.90;;;;;;4978034;28;20026;-91
2023/11/27 01:52:07;;;;;;;53.00;19.98;;;3.90;99.90;;;;;;4978242;28;20603;-91
2023/11/27 01:54:33;;;;;;;52.45;19.67;;;4.00;99.90;;;;;;4978022;28;20034;-91
2023/11/27 01:57:00;;;;;;;47.70;19.80;;;3.90;99.90;;;;;;4977688;28;20488;-91
2023/11/27 01:59:27;;;;;;;52.92;20.40;;;3.90;99.90;;;;;;4977313;28;20062;-91
2023/11/27 02:01:53;;;;;;;59.22;20.80;;;3.90;99.90;;;;;;4977787;28;20026;-91
2023/11/27 02:04:18;;;;;;;54.95;19.92;;;3.90;99.90;;;;;;4994927;28;20105;-91
2023/11/27 02:06:44;;;;;;;52.58;20.55;;;3.90;99.90;;;;;;4977341;28;20037;-90
2023/11/27 02:09:10;;;;;;;56.40;19.83;;;3.90;99.90;;;;;;4977704;28;20030;-91
2023/11/27 02:11:52;;;;;;;43.97;18.60;;;3.90;99.90;;;;;;4995103;28;20476;-90
2023/11/27 02:14:18;;;;;;;49.22;20.73;;;3.90;99.90;;;;;;4978247;28;20034;-91
2023/11/27 02:16:45;;;;;;;52.85;20.90;;;3.90;99.90;;;;;;4977659;28;20034;-91
2023/11/27 02:19:12;;;;;;;53.10;20.15;;;3.90;99.90;;;;;;4978903;28;20033;-90
2023/11/27 02:21:38;;;;;;;54.20;19.17;;;3.90;99.90;;;;;;4979413;28;20038;-90
2023/11/27 02:24:04;;;;;;;56.08;21.77;;;3.90;99.90;;;;;;4980415;28;20106;-90
2023/11/27 02:26:29;;;;;;;48.83;19.50;;;3.90;99.90;;;;;;4983664;28;20096;-90
2023/11/27 02:28:56;;;;;;;56.10;19.95;;;3.90;99.90;;;;;;4982788;28;20113;-90
2023/11/27 02:31:21;;;;;;;63.75;22.23;;;3.90;99.90;;;;;;4978150;28;20038;-90
2023/11/27 02:33:47;;;;;;;70.82;22.67;;;3.90;99.90;;;;;;4977132;28;20018;-90
2023/11/27 02:36:13;;;;;;;59.55;22.33;;;3.90;99.90;;;;;;4977291;28;20027;-90
2023/11/27 02:38:38;;;;;;;41.72;18.10;;;3.80;99.90;;;;;;4977130;28;20038;-89
2023/11/27 02:41:05;;;;;;;48.33;21.30;;;3.80;99.90;;;;;;4977001;28;20023;-90
2023/11/27 02:43:30;;;;;;;55.75;21.00;;;3.80;99.90;;;;;;4976919;28;20050;-90
2023/11/27 02:45:56;;;;;;;45.13;19.23;;;3.80;99.90;;;;;;4977139;28;20064;-89
2023/11/27 02:48:22;;;;;;;54.65;21.95;;;3.80;99.90;;;;;;4994437;28;20042;-89
2023/11/27 02:50:47;;;;;;;57.47;21.50;;;3.80;99.90;;;;;;4977511;28;20027;-90
2023/11/27 02:53:14;;;;;;;57.40;22.13;;;3.80;99.90;;;;;;4977540;28;20040;-91
2023/11/27 02:55:40;;;;;;;56.13;22.65;;;3.80;99.90;;;;;;4977051;28;20033;-91
2023/11/27 02:58:07;;;;;;;45.20;17.30;;;3.80;99.90;;;;;;4979571;28;20078;-89
2023/11/27 03:00:33;;;;;;;43.58;19.48;;;3.80;99.90;;;;;;4978111;28;20050;-89
2023/11/27 03:02:59;;;;;;;43.92;19.40;;;3.90;99.90;;;;;;4976925;28;20475;-90
2023/11/27 03:05:25;;;;;;;48.08;20.73;;;3.90;99.90;;;;;;4980980;28;20057;-89
2023/11/27 03:07:51;;;;;;;52.10;21.20;;;3.90;99.90;;;;;;4988003;28;20050;-90
2023/11/27 03:10:17;;;;;;;47.15;20.30;;;3.90;99.90;;;;;;4987380;28;20027;-89
2023/11/27 03:12:43;;;;;;;42.03;19.60;;;3.90;99.90;;;;;;4986627;28;20066;-90
2023/11/27 03:15:09;;;;;;;44.25;19.25;;;3.90;99.90;;;;;;4987369;28;20267;-89
2023/11/27 03:17:35;;;;;;;43.80;19.60;;;3.90;99.90;;;;;;4980942;28;20039;-89
2023/11/27 03:20:01;;;;;;;40.08;17.52;;;3.90;99.90;;;;;;4983009;28;20045;-90
2023/11/27 03:22:27;;;;;;;41.58;18.23;;;3.90;99.90;;;;;;4987093;28;20026;-88
2023/11/27 03:24:52;;;;;;;40.55;17.75;;;3.90;99.90;;;;;;4983271;28;20026;-90
2023/11/27 03:27:18;;;;;;;41.33;19.13;;;3.90;99.90;;;;;;4978878;28;20034;-89
2023/11/27 03:29:44;;;;;;;40.30;18.33;;;4.00;99.90;;;;;;4977658;28;20550;-89
2023/11/27 03:32:09;;;;;;;55.65;18.98;;;3.90;99.90;;;;;;4977382;28;20065;-90
2023/11/27 03:34:35;;;;;;;36.00;16.77;;;3.90;99.90;;;;;;4977798;28;20124;-90
2023/11/27 03:37:01;;;;;;;35.05;17.15;;;3.90;99.90;;;;;;4977302;28;20172;-89
2023/11/27 03:39:26;;;;;;;39.25;18.27;;;3.90;99.90;;;;;;4978897;28;20026;-88
2023/11/27 03:41:52;;;;;;;34.03;15.55;;;3.90;99.90;;;;;;4980716;28;20033;-89
2023/11/27 03:44:18;;;;;;;36.60;17.30;;;3.90;99.90;;;;;;4980275;28;20049;-89
2023/11/27 03:46:44;;;;;;;30.35;15.95;;;3.90;99.90;;;;;;4980224;28;20408;-90
2023/11/27 03:49:10;;;;;;;32.67;15.70;;;4.00;99.90;;;;;;4997234;28;20034;-90
2023/11/27 03:51:37;;;;;;;31.35;16.73;;;4.00;99.90;;;;;;4997473;28;20114;-90
2023/11/27 03:54:03;;;;;;;29.95;15.75;;;4.00;99.90;;;;;;4980185;28;20065;-89
2023/11/27 03:56:29;;;;;;;27.48;15.18;;;4.00;99.90;;;;;;4979612;28;20042;-89
2023/11/27 03:58:55;;;;;;;34.35;15.70;;;4.00;99.90;;;;;;4979546;28;20056;-90
2023/11/27 04:01:21;;;;;;;25.70;14.77;;;4.00;99.90;;;;;;4980174;28;20022;-89
2023/11/27 04:03:48;;;;;;;30.25;16.45;;;4.00;99.90;;;;;;4997460;28;20026;-90
2023/11/27 04:06:25;;;;;;;29.92;16.42;;;4.00;99.90;;;;;;4979883;28;20034;-89
2023/11/27 04:08:51;;;;;;;31.95;15.98;;;4.00;99.90;;;;;;4979800;28;20023;-90
2023/11/27 04:11:19;;;;;;;30.52;16.80;;;4.00;99.90;;;;;;4983890;28;20549;-90
2023/11/27 04:13:44;;;;;;;32.40;15.43;;;4.00;99.90;;;;;;4987490;28;20023;-91
2023/11/27 04:16:10;;;;;;;31.23;16.27;;;4.00;99.90;;;;;;4987936;28;20506;-91
2023/11/27 04:18:36;;;;;;;31.05;15.93;;;4.00;99.90;;;;;;4986695;28;20050;-90
2023/11/27 04:21:02;;;;;;;27.17;15.95;;;4.00;99.90;;;;;;4984916;28;20593;-91
2023/11/27 04:23:28;;;;;;;29.08;14.88;;;4.00;99.90;;;;;;4981489;28;20499;-90
2023/11/27 04:25:54;;;;;;;27.80;14.85;;;4.00;99.90;;;;;;4988818;28;20209;-90
2023/11/27 04:28:19;;;;;;;27.60;14.75;;;4.00;99.90;;;;;;4990779;28;20030;-89
2023/11/27 04:30:46;;;;;;;30.95;16.70;;;4.00;99.90;;;;;;5006490;28;20396;-90
2023/11/27 04:33:14;;;;;;;33.08;15.98;;;4.00;99.90;;;;;;4986786;28;20030;-90
2023/11/27 04:35:41;;;;;;;36.95;17.52;;;4.00;99.90;;;;;;4985814;28;20042;-89
2023/11/27 04:38:07;;;;;;;27.05;14.07;;;4.00;99.90;;;;;;4985495;28;20089;-90
2023/11/27 04:40:34;;;;;;;24.95;13.43;;;4.00;99.90;;;;;;4983878;28;20053;-89
2023/11/27 04:43:00;;;;;;;25.33;14.02;;;4.00;99.90;;;;;;4983000;28;20037;-90
2023/11/27 04:45:25;;;;;;;25.05;13.35;;;4.00;99.90;;;;;;4981054;28;20018;-89
2023/11/27 04:47:51;;;;;;;23.67;12.65;;;4.00;99.90;;;;;;4980669;28;20022;-90
2023/11/27 04:50:17;;;;;;;25.23;13.70;;;4.00;99.90;;;;;;4978988;28;20475;-90
2023/11/27 04:52:43;;;;;;;24.45;13.00;;;4.00;99.90;;;;;;4979608;28;20018;-89
2023/11/27 04:55:10;;;;;;;24.70;13.05;;;4.00;99.90;;;;;;4979390;28;20031;-90
2023/11/27 04:57:37;;;;;;;23.50;12.55;;;4.00;99.90;;;;;;4978961;28;20349;-89
2023/11/27 05:00:03;;;;;;;21.13;12.32;;;4.00;99.90;;;;;;4996218;28;20061;-90
2023/11/27 05:02:29;;;;;;;21.73;12.68;;;4.00;99.90;;;;;;4979011;28;20407;-89
2023/11/27 05:04:54;;;;;;;27.52;13.57;;;4.00;99.90;;;;;;4978241;28;20032;-89
2023/11/27 05:07:20;;;;;;;21.25;12.35;;;4.00;99.90;;;;;;4978311;28;20019;-89
2023/11/27 05:09:46;;;;;;;28.48;14.32;;;4.00;99.90;;;;;;4978556;28;20349;-89
2023/11/27 05:12:12;;;;;;;24.27;12.85;;;4.00;99.90;;;;;;4978338;28;20483;-89
2023/11/27 05:14:37;;;;;;;24.33;13.02;;;4.10;99.90;;;;;;4978482;28;20062;-90
2023/11/27 05:17:03;;;;;;;26.23;13.82;;;4.10;99.90;;;;;;4995663;28;20035;-90
2023/11/27 05:19:30;;;;;;;25.73;13.77;;;4.10;99.90;;;;;;4978411;28;20312;-90
2023/11/27 05:21:56;;;;;;;23.17;12.98;;;4.10;99.90;;;;;;4978147;28;20065;-89
2023/11/27 05:24:23;;;;;;;25.20;12.45;;;4.10;99.90;;;;;;4977861;28;20472;-89
2023/11/27 05:26:48;;;;;;;21.77;12.63;;;4.00;99.90;;;;;;4977769;28;20476;-89
2023/11/27 05:29:14;;;;;;;22.83;12.18;;;4.10;99.90;;;;;;4977903;28;20049;-88
2023/11/27 05:31:40;;;;;;;24.95;12.60;;;4.10;99.90;;;;;;4978289;28;20104;-90
2023/11/27 05:34:07;;;;;;;28.95;14.75;;;4.10;99.90;;;;;;4977755;28;20027;-89
2023/11/27 05:36:33;;;;;;;28.42;13.45;;;4.10;99.90;;;;;;4977429;28;20046;-90
2023/11/27 05:38:59;;;;;;;24.80;12.88;;;4.10;99.90;;;;;;4977211;28;20030;-89
2023/11/27 05:41:25;;;;;;;25.88;13.35;;;4.10;99.90;;;;;;4977513;28;20030;-90
2023/11/27 05:43:51;;;;;;;23.48;13.07;;;4.10;99.90;;;;;;4977558;28;20037;-89
2023/11/27 05:46:18;;;;;;;19.77;11.73;;;4.10;99.90;;;;;;4977431;28;20121;-91
2023/11/27 05:48:44;;;;;;;19.35;11.27;;;4.10;99.90;;;;;;4977406;28;20030;-90
2023/11/27 05:51:09;;;;;;;24.15;11.27;;;4.10;99.90;;;;;;4977549;28;20039;-89
2023/11/27 05:53:36;;;;;;;24.08;12.23;;;4.10;99.90;;;;;;4977531;28;20032;-90
2023/11/27 05:56:02;;;;;;;30.20;13.43;;;4.10;99.90;;;;;;4977360;28;20135;-90
2023/11/27 05:58:28;;;;;;;18.65;10.68;;;4.10;99.90;;;;;;4977438;28;20039;-91
2023/11/27 06:00:55;;;;;;;49.83;15.07;;;4.10;99.90;;;;;;4977261;28;20603;-90
2023/11/27 06:03:21;;;;;;;50.20;12.65;;;4.10;99.90;;;;;;4977271;28;20029;-90
2023/11/27 06:05:47;;;;;;;18.67;9.93;;;4.10;99.90;;;;;;4994837;28;20022;-90
2023/11/27 06:08:14;;;;;;;16.05;9.57;;;4.10;99.90;;;;;;4977123;28;20041;-90
2023/11/27 06:10:39;;;;;;;21.40;11.45;;;4.10;99.90;;;;;;4977185;28;20377;-90
2023/11/27 06:13:05;;;;;;;26.85;12.07;;;4.10;99.90;;;;;;4976978;28;20114;-90
2023/11/27 06:15:31;;;;;;;18.73;9.73;;;4.10;99.90;;;;;;4977415;28;20050;-90
2023/11/27 06:17:57;;;;;;;22.13;12.18;;;4.10;99.90;;;;;;4976831;28;20034;-90
2023/11/27 06:20:22;;;;;;;21.73;10.98;;;4.10;99.90;;;;;;4976870;28;20113;-90
2023/11/27 06:22:48;;;;;;;19.48;10.27;;;4.10;99.90;;;;;;4977054;28;20153;-89
2023/11/27 06:25:14;;;;;;;16.00;9.07;;;4.10;99.90;;;;;;4976871;28;20023;-91
2023/11/27 06:27:41;;;;;;;20.80;11.32;;;4.10;99.90;;;;;;4976941;28;20041;-89
2023/11/27 06:30:09;;;;;;;21.20;10.95;;;4.10;99.90;;;;;;4976359;28;20026;-89
2023/11/27 06:32:35;;;;;;;23.40;12.45;;;4.10;99.90;;;;;;4976605;28;20026;-90
2023/11/27 06:35:01;;;;;;;13.10;8.00;;;4.10;99.90;;;;;;4976885;28;20034;-89
2023/11/27 06:37:27;;;;;;;22.13;11.82;;;4.10;99.90;;;;;;4993840;28;20105;-89
2023/11/27 06:39:54;;;;;;;16.52;9.73;;;4.10;99.90;;;;;;4975660;28;20041;-89
2023/11/27 06:42:20;;;;;;;17.55;9.68;;;4.20;99.90;;;;;;4976442;28;20034;-89
2023/11/27 06:44:46;;;;;;;14.15;8.32;;;4.20;99.90;;;;;;4976457;28;20089;-88
2023/11/27 06:47:11;;;;;;;14.15;8.10;;;4.20;99.90;;;;;;4976862;28;20065;-88
2023/11/27 06:49:37;;;;;;;10.35;5.70;;;4.20;99.90;;;;;;4977030;28;20068;-88
2023/11/27 06:52:03;;;;;;;11.43;6.82;;;4.20;99.90;;;;;;4977988;28;20026;-92
2023/11/27 06:54:29;;;;;;;13.65;8.00;;;4.30;99.90;;;;;;4990728;28;20023;-91
2023/11/27 06:56:54;;;;;;;18.50;9.20;;;4.30;99.90;;;;;;4973870;28;20457;-89
2023/11/27 06:59:21;;;;;;;12.32;6.90;;;4.40;99.90;;;;;;4977517;28;20042;-89
2023/11/27 07:01:46;;;;;;;11.80;7.00;;;4.40;99.90;;;;;;4977074;28;20094;-90
2023/11/27 07:04:12;;;;;;;11.45;6.28;;;4.40;99.90;;;;;;4976581;28;20057;-90
2023/11/27 07:06:39;;;;;;;8.57;5.40;;;4.40;99.90;;;;;;4976499;28;20109;-89
2023/11/27 07:09:05;;;;;;;6.97;5.03;;;4.40;99.90;;;;;;4973211;28;20073;-90
2023/11/27 07:11:35;;;;;;;7.55;5.13;;;4.40;99.90;;;;;;4984154;28;20029;-89
2023/11/27 07:14:02;;;;;;;8.95;5.38;;;4.40;99.90;;;;;;4975766;28;20029;-90
2023/11/27 07:16:28;;;;;;;10.55;5.97;;;4.40;99.90;;;;;;4979820;28;20030;-89
2023/11/27 07:18:57;;;;;;;10.27;6.15;;;4.30;99.90;;;;;;4976912;28;20026;-92
2023/11/27 07:21:27;;;;;;;10.18;6.18;;;4.30;99.90;;;;;;4979759;28;20029;-88
2023/11/27 07:23:54;;;;;;;9.68;6.15;;;4.30;99.90;;;;;;4979300;28;20514;-89
2023/11/27 07:26:21;;;;;;;11.70;6.93;;;4.20;99.90;;;;;;4980398;28;20027;-89
2023/11/27 07:28:46;;;;;;;10.70;6.63;;;4.20;99.90;;;;;;4979961;28;20030;-90
2023/11/27 07:31:14;;;;;;;10.52;5.72;;;4.20;99.90;;;;;;4979595;28;20599;-89
2023/11/27 07:33:40;;;;;;;10.43;6.70;;;4.20;99.90;;;;;;4979489;28;20026;-89
2023/11/27 07:36:07;;;;;;;10.52;6.50;;;4.20;99.90;;;;;;4979639;28;20023;-89
2023/11/27 07:38:33;;;;;;;9.02;6.47;;;4.10;99.90;;;;;;4979648;28;20034;-90
2023/11/27 07:40:59;;;;;;;10.02;5.85;;;4.10;99.90;;;;;;4980496;28;20481;-88
2023/11/27 07:43:25;;;;;;;10.57;6.43;;;4.10;99.90;;;;;;4983199;28;20102;-89
2023/11/27 07:45:51;;;;;;;10.65;6.07;;;4.10;99.90;;;;;;5000231;28;20094;-88
2023/11/27 07:48:18;;;;;;;6.82;4.25;;;4.00;99.90;;;;;;4982416;28;20042;-89
2023/11/27 07:50:44;;;;;;;9.23;5.78;;;4.00;99.90;;;;;;4981756;28;20105;-88
2023/11/27 07:53:10;;;;;;;9.48;5.57;;;4.00;99.90;;;;;;4981742;28;20503;-87
2023/11/27 07:55:37;;;;;;;10.57;5.60;;;3.90;99.90;;;;;;4981658;28;20084;-89
2023/11/27 07:58:03;;;;;;;8.70;4.95;;;3.90;99.90;;;;;;4980642;28;20192;-86
2023/11/27 08:00:28;;;;;;;9.30;5.95;;;3.90;99.90;;;;;;4981374;28;20030;-87
2023/11/27 08:02:55;;;;;;;12.63;5.70;;;3.90;99.90;;;;;;4998660;28;20050;-87
2023/11/27 08:05:22;;;;;;;12.02;6.07;;;3.80;99.90;;;;;;4977238;28;20106;-89
2023/11/27 08:07:49;;;;;;;9.40;5.15;;;3.80;99.90;;;;;;4979186;28;20031;-89
2023/11/27 08:10:15;;;;;;;7.85;5.50;;;3.80;99.90;;;;;;4979383;28;20026;-90
2023/11/27 08:12:44;;;;;;;8.27;5.55;;;3.80;99.90;;;;;;4975329;28;20026;-87
2023/11/27 08:15:18;;;;;;;8.55;4.97;;;3.70;99.90;;;;;;4981015;28;20026;-88
2023/11/27 08:17:48;;;;;;;9.50;5.22;;;3.70;99.90;;;;;;4979926;28;20038;-89
2023/11/27 08:20:15;;;;;;;9.35;5.57;;;3.70;99.90;;;;;;4978947;28;20131;-89
2023/11/27 08:22:42;;;;;;;11.43;5.32;;;3.70;99.90;;;;;;4978661;28;20026;-90
2023/11/27 08:25:11;;;;;;;8.70;5.43;;;3.70;99.90;;;;;;4978067;28;20030;-88
2023/11/27 08:27:42;;;;;;;10.85;6.20;;;3.70;99.90;;;;;;4978807;28;20026;-89
2023/11/27 08:30:11;;;;;;;12.57;6.65;;;3.70;99.90;;;;;;4978599;28;20433;-90
2023/11/27 08:32:37;;;;;;;14.13;7.30;;;3.70;99.90;;;;;;4978688;28;20034;-90
2023/11/27 08:35:05;;;;;;;13.23;7.43;;;3.70;99.90;;;;;;4978947;28;20506;-90
2023/11/27 08:37:35;;;;;;;12.93;7.50;;;3.70;99.90;;;;;;4978862;28;20042;-89
2023/11/27 08:40:09;;;;;;;11.27;7.10;;;3.70;99.90;;;;;;4978823;28;20157;-90
2023/11/27 08:42:36;;;;;;;11.98;7.72;;;3.70;99.90;;;;;;4978571;28;20492;-90
2023/11/27 08:45:10;;;;;;;14.18;8.02;;;3.70;99.90;;;;;;4978849;28;20027;-91
2023/11/27 08:47:38;;;;;;;17.60;8.68;;;3.70;99.90;;;;;;4992243;28;20030;-91
2023/11/27 08:50:05;;;;;;;15.57;8.57;;;3.80;99.90;;;;;;4978060;28;20026;-90
2023/11/27 08:52:32;;;;;;;13.18;7.22;;;3.80;99.90;;;;;;4977151;28;20093;-92
2023/11/27 08:54:57;;;;;;;13.15;7.53;;;3.80;99.90;;;;;;4978420;28;20026;-90
2023/11/27 08:57:24;;;;;;;14.80;7.22;;;3.80;99.90;;;;;;4978351;28;20042;-91
2023/11/27 08:59:50;;;;;;;14.05;6.95;;;3.80;99.90;;;;;;4979494;28;20507;-90
2023/11/27 09:02:16;;;;;;;11.43;6.85;;;3.80;99.90;;;;;;4980329;28;20033;-90
2023/11/27 09:04:42;;;;;;;11.73;6.15;;;3.80;99.90;;;;;;4978486;28;20105;-90
2023/11/27 09:07:08;;;;;;;9.50;5.85;;;3.90;99.90;;;;;;4995387;28;20503;-90
2023/11/27 09:09:34;;;;;;;11.07;6.00;;;3.90;99.90;;;;;;4994091;28;20030;-90
2023/11/27 09:11:59;;;;;;;9.68;5.55;;;3.90;99.90;;;;;;4981073;28;20026;-91
2023/11/27 09:14:26;;;;;;;7.10;4.88;;;3.90;99.90;;;;;;4994112;28;20022;-90
2023/11/27 09:16:52;;;;;;;9.07;5.20;;;3.90;99.90;;;;;;4993783;28;20060;-91
2023/11/27 09:19:18;;;;;;;10.32;4.85;;;3.90;99.90;;;;;;4981497;28;20026;-91
2023/11/27 09:21:45;;;;;;;8.15;4.28;;;3.80;99.90;;;;;;4977566;28;20145;-91
2023/11/27 09:24:11;;;;;;;5.60;3.47;;;3.90;99.90;;;;;;4977440;28;20062;-90
2023/11/27 09:26:37;;;;;;;6.78;3.75;;;3.80;99.90;;;;;;4977635;28;20030;-90
2023/11/27 09:29:03;;;;;;;6.45;3.75;;;3.80;99.90;;;;;;4977229;28;20034;-92
2023/11/27 09:31:29;;;;;;;4.63;3.40;;;3.80;99.90;;;;;;4977171;28;20026;-90
2023/11/27 09:33:54;;;;;;;6.93;4.28;;;3.80;99.90;;;;;;4977177;28;20022;-91
2023/11/27 09:36:20;;;;;;;7.72;3.75;;;3.80;99.90;;;;;;4977150;28;20384;-91
2023/11/27 09:38:47;;;;;;;4.00;2.85;;;3.80;99.90;;;;;;4977580;28;20031;-90
2023/11/27 09:41:13;;;;;;;3.42;2.42;;;3.80;99.90;;;;;;4977164;28;20097;-91
2023/11/27 09:43:39;;;;;;;5.65;3.15;;;3.90;99.90;;;;;;4978138;28;20522;-90
2023/11/27 09:46:16;;;;;;;7.15;3.15;;;3.80;99.90;;;;;;4994836;28;20027;-91
2023/11/27 09:48:44;;;;;;;6.70;3.58;;;3.80;99.90;;;;;;4977156;28;20026;-90
2023/11/27 09:51:13;;;;;;;4.82;3.25;;;3.80;99.90;;;;;;4973470;28;20429;-90
2023/11/27 09:53:51;;;;;;;5.53;3.15;;;3.80;99.90;;;;;;4970215;28;20068;-90
2023/11/27 09:56:21;;;;;;;3.28;2.30;;;3.80;99.90;;;;;;4976960;28;20080;-91
2023/11/27 09:58:47;;;;;;;3.55;1.80;;;3.90;99.90;;;;;;4976974;28;20047;-92
2023/11/27 10:01:13;;;;;;;3.60;2.42;;;3.80;99.90;;;;;;4978492;28;20042;-89
2023/11/27 10:03:41;;;;;;;3.38;2.28;;;3.80;99.90;;;;;;4968509;28;20109;-90
2023/11/27 10:06:07;;;;;;;4.00;2.60;;;3.80;99.90;;;;;;4977200;28;20038;-90
2023/11/27 10:08:33;;;;;;;3.97;2.60;;;3.80;99.90;;;;;;4977280;28;20027;-90
2023/11/27 10:10:59;;;;;;;4.05;2.53;;;3.80;99.90;;;;;;4976716;28;20035;-90
2023/11/27 10:13:34;;;;;;;4.10;2.60;;;3.80;99.90;;;;;;4976766;28;20019;-89
2023/11/27 10:16:09;;;;;;;3.38;2.38;;;3.80;99.90;;;;;;4976539;28;20034;-91
2023/11/27 10:18:35;;;;;;;4.00;2.47;;;3.70;99.90;;;;;;4975843;28;20152;-90
2023/11/27 10:21:08;;;;;;;5.97;3.40;;;3.70;99.90;;;;;;4976691;28;20026;-90
2023/11/27 10:23:35;;;;;;;5.20;2.97;;;3.70;99.90;;;;;;4976261;28;20022;-90
2023/11/27 10:26:03;;;;;;;3.80;2.33;;;3.70;99.90;;;;;;4976619;28;20029;-89
2023/11/27 10:28:42;;;;;;;3.83;2.03;;;3.70;99.90;;;;;;4976291;28;20057;-90
2023/11/27 10:31:08;;;;;;;3.63;2.33;;;3.60;99.90;;;;;;4992400;28;20034;-90
2023/11/27 10:33:37;;;;;;;4.88;2.50;;;3.60;99.90;;;;;;4976110;28;20097;-90
2023/11/27 10:36:05;;;;;;;3.22;2.10;;;3.60;99.90;;;;;;4977914;28;20027;-90
2023/11/27 10:38:31;;;;;;;4.95;2.35;;;3.60;99.90;;;;;;4975825;28;20488;-91
2023/11/27 10:40:59;;;;;;;4.45;2.30;;;3.60;99.90;;;;;;4977128;28;20032;-89
2023/11/27 10:43:25;;;;;;;2.97;2.13;;;3.60;99.90;;;;;;4976914;28;20026;-91
2023/11/27 10:45:55;;;;;;;3.75;2.42;;;3.50;99.90;;;;;;4977339;28;20081;-91
2023/11/27 10:48:22;;;;;;;6.53;3.60;;;3.60;99.90;;;;;;4993027;28;20030;-91
2023/11/27 10:50:51;;;;;;;4.15;2.25;;;3.60;99.90;;;;;;4982504;28;20093;-93
2023/11/27 10:53:21;;;;;;;4.10;2.00;;;3.60;99.90;;;;;;4981775;28;20073;-92
2023/11/27 10:55:48;;;;;;;3.30;2.30;;;3.50;99.90;;;;;;4981978;28;20018;-90
2023/11/27 10:58:15;;;;;;;2.75;1.88;;;3.50;99.90;;;;;;4981126;28;20046;-90
2023/11/27 11:00:47;;;;;;;2.67;2.03;;;3.50;99.90;;;;;;4980831;28;20015;-91
2023/11/27 11:03:21;;;;;;;3.08;1.45;;;3.50;99.90;;;;;;4982319;28;20046;-90
2023/11/27 11:05:53;;;;;;;2.58;1.65;;;3.50;99.90;;;;;;4981419;28;20022;-90
2023/11/27 11:08:31;;;;;;;2.22;1.92;;;3.50;99.90;;;;;;4998727;28;20121;-91
2023/11/27 11:10:58;;;;;;;2.28;1.90;;;3.50;99.90;;;;;;4981704;28;20038;-91
2023/11/27 11:13:27;;;;;;;1.88;1.33;;;3.50;99.90;;;;;;4981389;28;20045;-91
2023/11/27 11:16:00;;;;;;;1.92;1.80;;;3.50;99.90;;;;;;4975175;28;20031;-91
2023/11/27 11:18:54;;;;;;;1.65;1.30;;;3.50;99.90;;;;;;4979115;28;20034;-90
2023/11/27 11:21:26;;;;;;;1.48;1.30;;;3.40;99.90;;;;;;4998804;28;20046;-89
2023/11/27 11:24:08;;;;;;;1.33;1.20;;;3.40;99.90;;;;;;5001603;28;20038;-89
2023/11/27 11:26:47;;;;;;;3.00;1.20;;;3.40;99.90;;;;;;4983756;28;20018;-90
2023/11/27 11:29:23;;;;;;;1.10;0.90;;;3.40;99.90;;;;;;4983683;28;20026;-90
2023/11/27 11:32:02;;;;;;;1.20;0.98;;;3.40;99.90;;;;;;4981473;28;20113;-90
2023/11/27 11:34:50;;;;;;;1.10;1.00;;;3.40;99.90;;;;;;4979538;28;20022;-90
2023/11/27 11:37:18;;;;;;;1.20;1.10;;;3.30;99.90;;;;;;4996547;28;20092;-91
2023/11/27 11:39:53;;;;;;;2.10;1.40;;;3.30;99.90;;;;;;4979577;28;20030;-91
2023/11/27 11:42:25;;;;;;;1.77;1.00;;;3.20;99.90;;;;;;4977332;28;20029;-89
2023/11/27 11:45:17;;;;;;;1.35;1.10;;;3.20;99.90;;;;;;4979208;28;20034;-91
2023/11/27 11:47:43;;;;;;;1.40;1.30;;;3.20;99.90;;;;;;4979860;28;20081;-92
2023/11/27 11:50:30;;;;;;;2.38;1.23;;;3.20;99.90;;;;;;4979373;28;20464;-91
2023/11/27 11:53:04;;;;;;;1.35;1.25;;;3.30;99.90;;;;;;4978887;28;20105;-92
2023/11/27 11:55:32;;;;;;;2.67;1.40;;;3.30;99.90;;;;;;4979370;28;20019;-91
2023/11/27 11:58:19;;;;;;;2.95;1.80;;;3.30;99.90;;;;;;4976102;28;20081;-90
2023/11/27 12:00:47;;;;;;;2.65;1.95;;;3.40;99.90;;;;;;4974096;28;20077;-90
2023/11/27 12:03:20;;;;;;;2.67;1.75;;;3.40;99.90;;;;;;4978897;28;20042;-90
2023/11/27 12:05:53;;;;;;;2.72;1.80;;;3.50;99.90;;;;;;4979102;28;20031;-90
2023/11/27 12:08:23;;;;;;;2.30;2.10;;;3.50;99.90;;;;;;4976568;28;20033;-93
2023/11/27 12:10:51;;;;;;;4.67;2.00;;;3.60;99.90;;;;;;4978855;28;20113;-90
2023/11/27 12:13:20;;;;;;;5.10;2.50;;;3.60;99.90;;;;;;4978826;28;20380;-89
2023/11/27 12:15:56;;;;;;;2.30;2.10;;;3.70;99.90;;;;;;4978449;28;20030;-91
2023/11/27 12:18:22;;;;;;;5.70;2.30;;;3.70;99.90;;;;;;4976617;28;20117;-92
2023/11/27 12:20:49;;;;;;;2.75;1.92;;;3.80;99.90;;;;;;4979177;28;20030;-92
2023/11/27 12:23:15;;;;;;;2.00;1.80;;;3.80;99.90;;;;;;4978958;28;20036;-92
2023/11/27 12:25:42;;;;;;;2.17;2.00;;;3.80;99.90;;;;;;4979401;28;20109;-91
2023/11/27 12:28:10;;;;;;;4.30;2.10;;;3.90;99.90;;;;;;4979361;28;20106;-91
2023/11/27 12:30:36;;;;;;;5.70;2.60;;;3.90;99.90;;;;;;4980165;28;20022;-92
2023/11/27 12:33:07;;;;;;;4.95;2.17;;;3.90;99.90;;;;;;4980308;28;20019;-91
2023/11/27 12:35:33;;;;;;;2.60;1.75;;;3.90;99.90;;;;;;4973998;28;20026;-91
2023/11/27 12:38:05;;;;;;;3.60;2.40;;;3.90;99.90;;;;;;4975467;28;20046;-92
2023/11/27 12:40:34;;;;;;;5.95;2.75;;;3.90;99.90;;;;;;4976768;28;20026;-91
2023/11/27 12:43:04;;;;;;;2.88;2.17;;;4.00;99.90;;;;;;4977801;28;20121;-90
2023/11/27 12:45:31;;;;;;;7.38;2.35;;;4.00;99.90;;;;;;4978334;28;20027;-91
2023/11/27 12:47:58;;;;;;;4.10;2.28;;;4.00;99.90;;;;;;4977910;28;20026;-90